Terminal Aerodrome Forecast
Issued by NWS Charleston, WV

Current Version | Previous Version | Text Only | Print | Product List | Glossary Off
Versions: 1 2 3 4 5 6 7 8 9 10 11 12 13 14 15 16 17 18 19 20 21 22 23 24 25 26

000
FTUS41 KRLX 270552
TAFPKB
TAF
KPKB 270552Z 2706/2806 21005KT 5SM SHRA BR VCTS BKN040CB
      TEMPO 2706/2708 6SM SHRA BR BKN025
     FM270800 22005KT P6SM BKN050
     FM271200 21005KT P6SM BKN025
     FM271400 22006KT P6SM BKN035
     FM271700 22008KT P6SM SCT040
     FM280100 20004KT P6SM SCT050
     FM280500 VRB03KT P6SM BKN050=

USA.gov is the U.S. government's official web portal to all federal, state and local government web resources and services.